createdAt,value
2022-10-05T00:02:42.025Z,10.51
2022-10-05T00:05:32.237Z,10.53
2022-10-05T00:08:24.158Z,10.54
2022-10-05T00:11:14.349Z,10.54
2022-10-05T00:14:04.212Z,10.39
2022-10-05T00:16:52.713Z,10.55
2022-10-05T00:19:41.207Z,10.44
2022-10-05T00:22:32.642Z,10.49
2022-10-05T00:25:23.062Z,10.45
2022-10-05T00:28:18.203Z,10.36
2022-10-05T00:31:15.355Z,10.32
2022-10-05T00:34:03.814Z,10.36
2022-10-05T00:36:52.316Z,10.35
2022-10-05T00:39:41.736Z,10.27
2022-10-05T00:42:38.593Z,10.26
2022-10-05T00:45:30.948Z,10.15
2022-10-05T00:48:23.054Z,10.13
2022-10-05T00:51:25.864Z,10.08
2022-10-05T00:54:23.263Z,10.04
2022-10-05T00:57:29.820Z,10.02
2022-10-05T01:00:21.167Z,9.92
2022-10-05T01:03:14.897Z,9.79
2022-10-05T01:06:13.891Z,9.72
2022-10-05T01:09:10.483Z,9.55
2022-10-05T01:12:03.644Z,9.33
2022-10-05T01:14:56.683Z,9.53
2022-10-05T01:17:50.910Z,9.27
2022-10-05T01:20:47.975Z,9.33
2022-10-05T01:24:03.016Z,9.17
2022-10-05T01:27:06.833Z,9.19
2022-10-05T01:30:02.321Z,9.22
2022-10-05T01:32:55.199Z,9.19
2022-10-05T01:35:49.422Z,9.17
2022-10-05T01:38:44.639Z,9.23
2022-10-05T01:41:37.060Z,9.27
2022-10-05T01:44:29.050Z,9.24
2022-10-05T01:47:23.443Z,9.17
2022-10-05T01:50:19.691Z,9.07
2022-10-05T01:53:13.832Z,9.07
2022-10-05T01:56:09.242Z,9.06
2022-10-05T01:59:07.970Z,9.03
2022-10-05T02:02:00.294Z,9.00
2022-10-05T02:05:07.988Z,8.93
2022-10-05T02:08:00.800Z,8.88
2022-10-05T02:10:52.790Z,8.79
2022-10-05T02:13:44.140Z,8.59
2022-10-05T02:16:36.675Z,8.61
2022-10-05T02:19:31.023Z,8.59
2022-10-05T02:22:24.284Z,8.53
2022-10-05T02:25:15.213Z,8.51
2022-10-05T02:28:05.766Z,8.46
2022-10-05T02:30:56.634Z,8.48
2022-10-05T02:33:45.152Z,8.52
2022-10-05T02:36:36.125Z,8.59
2022-10-05T02:39:31.012Z,8.65
2022-10-05T02:42:24.557Z,8.62
2022-10-05T02:45:21.075Z,8.36
2022-10-05T02:48:13.805Z,8.55
2022-10-05T02:51:07.422Z,8.55
2022-10-05T02:54:04.370Z,8.56
2022-10-05T02:56:59.228Z,8.55
2022-10-05T02:59:51.279Z,8.51
2022-10-05T03:02:44.285Z,8.45
2022-10-05T03:05:36.253Z,8.48
2022-10-05T03:08:30.222Z,8.58
2022-10-05T03:11:24.099Z,8.41
2022-10-05T03:14:20.452Z,8.28
2022-10-05T03:17:15.363Z,8.21
2022-10-05T03:20:10.911Z,8.24
2022-10-05T03:23:01.377Z,8.20
2022-10-05T03:26:11.741Z,8.30
2022-10-05T03:29:03.887Z,8.16
2022-10-05T03:31:59.493Z,8.25
2022-10-05T03:34:50.386Z,8.26
2022-10-05T03:37:45.106Z,8.23
2022-10-05T03:40:37.898Z,8.14
2022-10-05T03:43:37.374Z,8.08
2022-10-05T03:46:33.851Z,7.93
2022-10-05T03:49:29.591Z,7.99
2022-10-05T03:52:23.166Z,7.97
2022-10-05T03:55:18.505Z,8.00
2022-10-05T03:58:12.314Z,7.97
2022-10-05T04:01:03.400Z,7.56
2022-10-05T04:03:54.355Z,7.87
2022-10-05T04:06:47.586Z,7.89
2022-10-05T04:09:38.115Z,7.89
2022-10-05T04:12:28.863Z,7.91
2022-10-05T04:15:20.730Z,8.02
2022-10-05T04:18:20.258Z,8.01
2022-10-05T04:21:12.536Z,7.91
2022-10-05T04:24:06.199Z,8.07
2022-10-05T04:26:56.842Z,7.85
2022-10-05T04:29:48.868Z,8.03
2022-10-05T04:32:39.021Z,7.96
2022-10-05T04:35:36.238Z,7.90
2022-10-05T04:38:45.676Z,7.80
2022-10-05T04:41:46.492Z,7.78
2022-10-05T04:44:59.095Z,7.71
2022-10-05T04:48:10.124Z,7.67
2022-10-05T04:51:10.275Z,8.03
2022-10-05T04:54:07.998Z,7.93
2022-10-05T04:57:01.574Z,7.93
2022-10-05T05:00:05.806Z,7.80
2022-10-05T05:03:13.355Z,7.76
2022-10-05T05:06:22.615Z,7.64
2022-10-05T05:09:25.855Z,7.56
2022-10-05T05:12:22.282Z,7.62
2022-10-05T05:15:19.603Z,7.65
2022-10-05T05:18:27.236Z,7.75
2022-10-05T05:21:23.087Z,7.75
2022-10-05T05:24:16.897Z,7.76
2022-10-05T05:27:25.390Z,7.63
2022-10-05T05:30:21.172Z,7.63
2022-10-05T05:33:20.004Z,7.64
2022-10-05T05:36:37.896Z,7.52
2022-10-05T05:39:29.210Z,7.29
2022-10-05T05:42:23.735Z,7.56
2022-10-05T05:45:18.791Z,7.62
2022-10-05T05:48:17.737Z,7.74
2022-10-05T05:51:09.937Z,7.89
2022-10-05T05:54:05.198Z,7.89
2022-10-05T05:56:56.926Z,8.09
2022-10-05T05:59:53.236Z,8.14
2022-10-05T06:02:47.484Z,8.35
2022-10-05T06:05:40.507Z,8.54
2022-10-05T06:08:33.848Z,8.83
2022-10-05T06:11:25.004Z,9.06
2022-10-05T06:14:18.518Z,9.21
2022-10-05T06:17:12.275Z,9.29
2022-10-05T06:20:05.463Z,9.52
2022-10-05T06:22:56.942Z,9.58
2022-10-05T06:25:55.604Z,9.66
2022-10-05T06:28:44.116Z,9.78
2022-10-05T06:31:49.417Z,9.92
2022-10-05T06:34:51.421Z,10.02
2022-10-05T06:37:56.196Z,10.08
2022-10-05T06:40:54.131Z,10.26
2022-10-05T06:43:49.501Z,10.17
2022-10-05T06:46:45.589Z,10.44
2022-10-05T06:49:37.804Z,10.50
2022-10-05T06:52:35.607Z,10.51
2022-10-05T06:55:31.791Z,10.64
2022-10-05T06:58:27.768Z,10.65
2022-10-05T07:01:23.167Z,10.49
2022-10-05T07:04:22.572Z,11.01
2022-10-05T07:07:18.256Z,10.52
2022-10-05T07:10:18.539Z,11.53
2022-10-05T07:13:28.434Z,11.61
2022-10-05T07:16:26.362Z,11.64
2022-10-05T07:19:24.666Z,11.70
2022-10-05T07:22:34.461Z,11.91
2022-10-05T07:25:27.418Z,12.02
2022-10-05T07:28:23.112Z,12.03
2022-10-05T07:31:16.116Z,12.44
2022-10-05T07:34:08.010Z,12.55
2022-10-05T07:37:18.722Z,12.83
2022-10-05T07:40:14.255Z,13.10
2022-10-05T07:43:08.909Z,13.10
2022-10-05T07:46:03.878Z,13.14
2022-10-05T07:49:03.743Z,13.19
2022-10-05T07:51:54.625Z,13.53
2022-10-05T07:54:48.046Z,13.68
2022-10-05T07:57:40.492Z,14.28
2022-10-05T08:00:46.384Z,14.46
2022-10-05T08:03:47.568Z,14.58
2022-10-05T08:06:49.675Z,15.12
2022-10-05T08:09:42.070Z,15.23
2022-10-05T08:12:33.805Z,15.48
2022-10-05T08:15:24.789Z,15.58
2022-10-05T08:18:17.868Z,15.78
2022-10-05T08:21:11.980Z,15.47
2022-10-05T08:24:05.102Z,16.14
2022-10-05T08:26:59.739Z,16.16
2022-10-05T08:29:53.808Z,16.33
2022-10-05T08:32:50.280Z,16.54
2022-10-05T08:35:40.705Z,16.60
2022-10-05T08:38:33.359Z,17.07
2022-10-05T08:41:55.660Z,17.18
2022-10-05T08:44:58.215Z,17.36
2022-10-05T08:48:14.486Z,17.36
2022-10-05T08:51:37.178Z,17.54
2022-10-05T08:54:39.464Z,17.80
2022-10-05T08:57:47.499Z,17.79
2022-10-05T09:00:43.188Z,17.73
2022-10-05T09:04:14.445Z,17.53
2022-10-05T09:07:38.623Z,17.56
2022-10-05T09:11:08.664Z,17.83
2022-10-05T09:14:11.513Z,18.03
2022-10-05T09:17:29.721Z,18.30
2022-10-05T09:20:32.145Z,18.58
2022-10-05T09:23:33.506Z,17.90
2022-10-05T09:26:43.322Z,18.51
2022-10-05T09:30:11.395Z,18.90
2022-10-05T09:33:34.103Z,19.04
2022-10-05T09:36:51.504Z,19.29
2022-10-05T09:40:05.678Z,19.43
2022-10-05T09:43:09.640Z,19.65
2022-10-05T09:46:23.694Z,19.97
2022-10-05T09:49:26.517Z,20.40
2022-10-05T09:52:55.511Z,20.63
2022-10-05T09:56:12.915Z,20.90
2022-10-05T09:59:34.996Z,21.03
2022-10-05T10:02:38.763Z,21.00
2022-10-05T10:05:56.230Z,21.12
2022-10-05T10:08:53.365Z,21.20
2022-10-05T10:11:50.403Z,21.36
2022-10-05T10:15:33.015Z,21.46
2022-10-05T10:18:30.807Z,21.51
2022-10-05T10:21:35.244Z,21.51
2022-10-05T10:24:37.950Z,21.55
2022-10-05T10:27:37.548Z,21.70
2022-10-05T10:30:44.447Z,21.77
2022-10-05T10:33:55.670Z,21.72
2022-10-05T10:37:10.001Z,21.83
2022-10-05T10:40:09.570Z,21.99
2022-10-05T10:43:39.232Z,21.95
2022-10-05T10:46:36.692Z,22.02
2022-10-05T10:49:39.705Z,22.12
2022-10-05T10:52:38.669Z,22.16
2022-10-05T10:55:35.924Z,22.18
2022-10-05T10:58:50.409Z,22.30
2022-10-05T11:04:47.674Z,22.45
2022-10-05T11:07:48.797Z,22.65
2022-10-05T11:13:34.426Z,22.99
2022-10-05T11:16:52.724Z,22.83
2022-10-05T11:20:05.660Z,23.08
2022-10-05T11:23:08.446Z,23.20
2022-10-05T11:26:12.173Z,23.21
2022-10-05T11:29:22.328Z,23.35
2022-10-05T11:32:56.371Z,23.40
2022-10-05T11:36:08.849Z,23.21
2022-10-05T11:39:30.309Z,23.47
2022-10-05T11:42:45.853Z,23.51
2022-10-05T11:45:44.277Z,23.44
2022-10-05T11:48:43.868Z,23.34
2022-10-05T11:51:40.627Z,23.55
2022-10-05T11:55:09.829Z,23.65
2022-10-05T11:58:01.549Z,23.81
2022-10-05T12:00:55.517Z,23.76
2022-10-05T12:03:53.975Z,23.80
2022-10-05T12:06:54.621Z,23.93
2022-10-05T12:10:10.521Z,23.80
2022-10-05T12:13:06.071Z,24.02
2022-10-05T12:15:59.981Z,24.03
2022-10-05T12:18:54.877Z,24.13
2022-10-05T12:21:48.030Z,24.30
2022-10-05T12:25:01.576Z,24.25
2022-10-05T12:27:53.373Z,24.40
2022-10-05T12:31:03.230Z,24.48
2022-10-05T12:33:55.781Z,24.56
2022-10-05T12:37:05.070Z,24.64
2022-10-05T12:39:58.838Z,24.75
2022-10-05T12:42:53.838Z,24.89
2022-10-05T12:45:51.224Z,24.99
2022-10-05T12:48:56.043Z,24.99
2022-10-05T12:51:49.348Z,24.83
2022-10-05T12:54:47.514Z,24.79
2022-10-05T12:57:40.940Z,24.82
2022-10-05T13:00:31.354Z,24.77
2022-10-05T13:03:26.040Z,24.85
2022-10-05T13:06:20.077Z,25.02
2022-10-05T13:09:14.145Z,25.15
2022-10-05T13:12:08.390Z,25.21
2022-10-05T13:15:03.655Z,25.18
2022-10-05T13:18:00.864Z,25.14
2022-10-05T13:20:53.783Z,24.99
2022-10-05T13:23:51.667Z,25.14
2022-10-05T13:26:45.745Z,24.99
2022-10-05T13:29:40.697Z,25.03
2022-10-05T13:32:35.192Z,25.05
2022-10-05T13:35:34.972Z,25.08
2022-10-05T13:38:34.123Z,25.16
2022-10-05T13:41:30.271Z,24.54
2022-10-05T13:44:27.486Z,25.09
2022-10-05T13:47:23.035Z,24.97
2022-10-05T13:50:18.402Z,24.87
2022-10-05T13:53:16.206Z,24.90
2022-10-05T13:56:09.280Z,24.83
2022-10-05T13:59:05.902Z,24.70
2022-10-05T14:01:59.661Z,24.70
2022-10-05T14:04:51.929Z,24.77
2022-10-05T14:07:50.248Z,24.72
2022-10-05T14:10:40.328Z,24.75
2022-10-05T14:13:35.284Z,24.67
2022-10-05T14:16:25.600Z,24.67
2022-10-05T14:19:21.813Z,24.68
2022-10-05T14:22:13.976Z,24.64
2022-10-05T14:25:16.246Z,24.62
2022-10-05T14:28:24.444Z,24.57
2022-10-05T14:31:16.076Z,23.81
2022-10-05T14:34:33.058Z,24.58
2022-10-05T14:37:23.011Z,24.50
2022-10-05T14:40:30.684Z,24.42
2022-10-05T14:43:20.984Z,24.54
2022-10-05T14:46:27.052Z,24.46
2022-10-05T14:49:22.269Z,24.31
2022-10-05T14:52:32.288Z,24.43
2022-10-05T14:55:37.298Z,24.37
2022-10-05T14:58:34.988Z,24.27
2022-10-05T15:01:27.745Z,24.18
2022-10-05T15:04:29.365Z,24.09
2022-10-05T15:07:26.132Z,24.08
2022-10-05T15:10:29.497Z,24.13
2022-10-05T15:13:20.210Z,24.10
2022-10-05T15:16:16.015Z,24.01
2022-10-05T15:19:15.927Z,23.64
2022-10-05T15:22:22.891Z,23.91
2022-10-05T15:25:16.705Z,23.83
2022-10-05T15:28:13.559Z,23.55
2022-10-05T15:31:04.522Z,23.76
2022-10-05T15:33:57.505Z,23.78
2022-10-05T15:36:48.580Z,23.74
2022-10-05T15:39:43.119Z,23.46
2022-10-05T15:42:36.355Z,23.58
2022-10-05T15:45:32.363Z,23.48
2022-10-05T15:48:23.976Z,23.42
2022-10-05T15:51:19.337Z,23.40
2022-10-05T15:54:30.599Z,23.39
2022-10-05T15:57:22.871Z,23.27
2022-10-05T16:00:14.598Z,23.16
2022-10-05T16:03:13.007Z,23.19
2022-10-05T16:06:23.766Z,22.44
2022-10-05T16:09:22.452Z,23.08
2022-10-05T16:12:19.130Z,23.01
2022-10-05T16:15:20.188Z,22.92
2022-10-05T16:18:22.165Z,22.58
2022-10-05T16:21:21.506Z,22.75
2022-10-05T16:24:17.429Z,22.65
2022-10-05T16:27:11.332Z,22.53
2022-10-05T16:30:03.592Z,22.39
2022-10-05T16:33:00.846Z,22.28
2022-10-05T16:35:53.774Z,22.26
2022-10-05T16:38:47.862Z,22.00
2022-10-05T16:41:42.873Z,22.09
2022-10-05T16:44:38.330Z,21.97
2022-10-05T16:47:35.709Z,21.61
2022-10-05T16:50:30.091Z,21.72
2022-10-05T16:53:22.469Z,21.64
2022-10-05T16:56:12.749Z,21.47
2022-10-05T16:59:11.717Z,21.32
2022-10-05T17:02:07.577Z,21.06
2022-10-05T17:05:03.050Z,20.92
2022-10-05T17:08:02.551Z,20.77
2022-10-05T17:11:04.994Z,19.79
2022-10-05T17:14:17.569Z,19.32
2022-10-05T17:17:22.800Z,20.23
2022-10-05T17:20:27.348Z,20.14
2022-10-05T17:23:30.183Z,19.56
2022-10-05T17:26:35.189Z,19.82
2022-10-05T17:29:29.306Z,19.50
2022-10-05T17:32:39.586Z,18.64
2022-10-05T17:35:52.712Z,19.05
2022-10-05T17:38:50.681Z,18.98
2022-10-05T17:41:39.832Z,18.92
2022-10-05T17:44:29.182Z,18.79
2022-10-05T17:47:56.148Z,18.63
2022-10-05T17:51:03.465Z,18.50
2022-10-05T17:54:10.850Z,18.29
2022-10-05T17:57:19.673Z,18.18
2022-10-05T18:00:40.258Z,18.01
2022-10-05T18:03:40.884Z,17.83
2022-10-05T18:06:34.454Z,17.05
2022-10-05T18:09:36.120Z,17.52
2022-10-05T18:12:44.070Z,17.48
2022-10-05T18:15:48.570Z,16.54
2022-10-05T18:18:56.462Z,17.21
2022-10-05T18:22:01.232Z,17.03
2022-10-05T18:25:03.568Z,16.85
2022-10-05T18:28:03.964Z,16.86
2022-10-05T18:31:04.508Z,16.74
2022-10-05T18:34:09.974Z,16.48
2022-10-05T18:37:12.411Z,16.63
2022-10-05T18:40:13.009Z,16.48
2022-10-05T18:43:17.229Z,15.97
2022-10-05T18:46:21.853Z,16.25
2022-10-05T18:49:24.710Z,16.16
2022-10-05T18:52:18.641Z,16.01
2022-10-05T18:55:15.371Z,15.87
2022-10-05T18:58:27.066Z,15.90
2022-10-05T19:01:27.918Z,15.75
2022-10-05T19:04:22.560Z,15.64
2022-10-05T19:07:19.513Z,15.66
2022-10-05T19:10:16.031Z,15.54
2022-10-05T19:13:14.459Z,15.52
2022-10-05T19:16:12.288Z,15.47
2022-10-05T19:19:16.012Z,15.44
2022-10-05T19:22:09.109Z,15.33
2022-10-05T19:28:04.139Z,15.16
2022-10-05T19:31:02.570Z,15.13
2022-10-05T19:33:59.460Z,15.13
2022-10-05T19:36:58.280Z,15.08
2022-10-05T19:39:52.142Z,15.03
2022-10-05T19:42:55.552Z,14.93
2022-10-05T19:45:48.464Z,14.67
2022-10-05T19:48:43.073Z,14.91
2022-10-05T19:51:33.047Z,14.87
2022-10-05T19:54:25.832Z,14.79
2022-10-05T19:57:17.994Z,14.79
2022-10-05T20:00:20.543Z,14.74
2022-10-05T20:03:11.868Z,14.74
2022-10-05T20:06:02.116Z,14.66
2022-10-05T20:08:51.895Z,14.55
2022-10-05T20:11:50.244Z,14.45
2022-10-05T20:14:59.453Z,14.44
2022-10-05T20:18:06.530Z,14.47
2022-10-05T20:20:56.537Z,14.46
2022-10-05T20:23:45.057Z,14.55
2022-10-05T20:27:05.221Z,14.60
2022-10-05T20:29:53.856Z,14.59
2022-10-05T20:32:43.708Z,14.55
2022-10-05T20:35:33.640Z,14.48
2022-10-05T20:38:22.764Z,14.36
2022-10-05T20:41:11.194Z,14.31
2022-10-05T20:43:59.672Z,14.24
2022-10-05T20:46:48.335Z,14.14
2022-10-05T20:49:37.843Z,14.06
2022-10-05T20:52:27.621Z,14.02
2022-10-05T20:55:16.112Z,13.97
2022-10-05T20:58:04.827Z,13.93
2022-10-05T21:01:11.054Z,13.92
2022-10-05T21:03:59.781Z,13.90
2022-10-05T21:06:48.651Z,13.66
2022-10-05T21:09:40.879Z,13.56
2022-10-05T21:12:30.479Z,13.60
2022-10-05T21:15:23.660Z,13.66
2022-10-05T21:18:12.853Z,13.63
2022-10-05T21:21:02.738Z,13.60
2022-10-05T21:23:51.471Z,13.50
2022-10-05T21:26:41.689Z,13.21
2022-10-05T21:29:30.352Z,13.39
2022-10-05T21:32:18.783Z,13.36
2022-10-05T21:35:07.775Z,13.32
2022-10-05T21:37:56.214Z,13.38
2022-10-05T21:40:45.491Z,13.38
2022-10-05T21:43:35.391Z,13.33
2022-10-05T21:46:26.285Z,13.33
2022-10-05T21:49:17.524Z,13.31
2022-10-05T21:52:08.224Z,13.29
2022-10-05T21:54:56.897Z,13.23
2022-10-05T21:57:45.858Z,13.21
2022-10-05T22:00:35.720Z,13.18
2022-10-05T22:03:24.204Z,13.12
2022-10-05T22:06:12.679Z,13.02
2022-10-05T22:09:01.304Z,13.02
2022-10-05T22:11:49.904Z,12.99
2022-10-05T22:14:38.348Z,12.96
2022-10-05T22:17:31.228Z,12.98
2022-10-05T22:20:21.721Z,12.73
2022-10-05T22:23:10.151Z,12.93
2022-10-05T22:25:58.599Z,12.87
2022-10-05T22:28:48.385Z,12.84
2022-10-05T22:31:36.984Z,12.81
2022-10-05T22:34:26.903Z,12.72
2022-10-05T22:37:15.536Z,12.66
2022-10-05T22:40:04.525Z,12.69
2022-10-05T22:42:53.790Z,12.64
2022-10-05T22:45:42.447Z,12.59
2022-10-05T22:48:31.098Z,12.53
2022-10-05T22:51:21.266Z,12.65
2022-10-05T22:54:09.661Z,12.70
2022-10-05T22:56:58.093Z,12.66
2022-10-05T22:59:46.743Z,12.56
2022-10-05T23:02:37.189Z,12.60
2022-10-05T23:05:25.656Z,12.59
2022-10-05T23:08:16.032Z,12.53
2022-10-05T23:11:04.942Z,12.27
2022-10-05T23:13:55.605Z,12.43
2022-10-05T23:16:44.337Z,12.42
2022-10-05T23:19:32.816Z,12.37
2022-10-05T23:22:21.727Z,12.41
2022-10-05T23:25:11.646Z,12.34
2022-10-05T23:28:00.203Z,12.28
2022-10-05T23:30:48.734Z,12.16
2022-10-05T23:33:37.219Z,12.23
2022-10-05T23:36:27.505Z,12.17
2022-10-05T23:39:15.894Z,12.12
2022-10-05T23:42:05.927Z,12.10
2022-10-05T23:44:54.345Z,12.09
2022-10-05T23:47:42.786Z,12.10
2022-10-05T23:50:31.183Z,12.16
2022-10-05T23:53:20.272Z,11.78
2022-10-05T23:56:08.752Z,12.12
2022-10-05T23:58:58.567Z,12.16
